createdAt,value
2018-05-23T00:01:31.529Z,79.14
2018-05-23T00:04:33.612Z,80.12
2018-05-23T00:07:35.535Z,80.17
2018-05-23T00:10:37.959Z,80.08
2018-05-23T00:13:39.977Z,80.39
2018-05-23T00:16:41.964Z,80.34
2018-05-23T00:19:43.912Z,80.44
2018-05-23T00:22:45.979Z,80.53
2018-05-23T00:25:48.044Z,81.65
2018-05-23T00:28:50.164Z,81.86
2018-05-23T00:31:52.132Z,81.37
2018-05-23T00:34:54.164Z,81.41
2018-05-23T00:37:57.248Z,81.47
2018-05-23T00:40:59.316Z,80.92
2018-05-23T00:44:01.280Z,81.11
2018-05-23T00:47:03.371Z,81.47
2018-05-23T00:50:05.442Z,81.46
2018-05-23T00:53:07.479Z,81.57
2018-05-23T00:56:09.611Z,80.48
2018-05-23T00:59:11.624Z,81.21
2018-05-23T01:02:13.698Z,81.05
2018-05-23T01:05:15.771Z,80.92
2018-05-23T01:08:17.966Z,79.74
2018-05-23T01:11:20.096Z,80.47
2018-05-23T01:14:22.167Z,81.62
2018-05-23T01:17:26.207Z,80.39
2018-05-23T01:20:28.141Z,81.01
2018-05-23T01:23:30.236Z,81.34
2018-05-23T01:26:32.291Z,82.34
2018-05-23T01:29:34.356Z,81.88
2018-05-23T01:32:36.399Z,82.13
2018-05-23T01:35:38.511Z,81.87
2018-05-23T01:38:40.560Z,81.49
2018-05-23T01:41:42.592Z,81.11
2018-05-23T01:44:44.759Z,81.65
2018-05-23T01:47:46.792Z,81.97
2018-05-23T01:50:48.837Z,81.72
2018-05-23T01:53:50.920Z,81.60
2018-05-23T01:56:53.017Z,81.41
2018-05-23T01:59:56.301Z,80.21
2018-05-23T02:02:59.387Z,80.28
2018-05-23T02:06:01.457Z,80.21
2018-05-23T02:09:04.983Z,81.10
2018-05-23T02:12:07.048Z,81.21
2018-05-23T02:15:09.060Z,80.60
2018-05-23T02:18:11.148Z,81.18
2018-05-23T02:21:13.248Z,80.79
2018-05-23T02:24:15.394Z,81.19
2018-05-23T02:27:17.479Z,82.02
2018-05-23T02:30:19.525Z,82.23
2018-05-23T02:33:21.601Z,82.68
2018-05-23T02:36:26.267Z,83.50
2018-05-23T02:39:28.295Z,83.81
2018-05-23T02:42:30.392Z,83.49
2018-05-23T02:45:32.418Z,83.49
2018-05-23T02:48:35.434Z,83.95
2018-05-23T02:51:37.460Z,83.70
2018-05-23T02:54:39.455Z,84.09
2018-05-23T02:57:41.423Z,83.21
2018-05-23T03:00:44.536Z,83.18
2018-05-23T03:03:46.689Z,83.17
2018-05-23T03:06:48.804Z,83.57
2018-05-23T03:09:50.935Z,83.28
2018-05-23T03:12:52.996Z,83.36
2018-05-23T03:15:56.513Z,83.91
2018-05-23T03:18:58.672Z,83.23
2018-05-23T03:22:01.335Z,83.33
2018-05-23T03:25:03.461Z,84.23
2018-05-23T03:28:05.504Z,84.22
2018-05-23T03:31:07.651Z,83.92
2018-05-23T03:34:09.634Z,83.21
2018-05-23T03:37:11.675Z,84.05
2018-05-23T03:40:13.772Z,84.88
2018-05-23T03:43:15.844Z,84.73
2018-05-23T03:46:17.885Z,84.59
2018-05-23T03:49:19.878Z,84.52
2018-05-23T03:52:21.956Z,84.21
2018-05-23T03:55:24.098Z,83.87
2018-05-23T03:58:27.111Z,84.81
2018-05-23T04:03:48.459Z,84.07
2018-05-23T04:06:59.682Z,84.00
2018-05-23T04:10:01.852Z,83.75
2018-05-23T04:13:03.841Z,83.70
2018-05-23T04:16:05.932Z,84.18
2018-05-23T04:19:08.012Z,84.04
2018-05-23T04:22:10.138Z,85.18
2018-05-23T04:25:12.223Z,85.48
2018-05-23T04:28:14.320Z,86.43
2018-05-23T04:31:16.414Z,86.76
2018-05-23T04:34:18.415Z,86.20
2018-05-23T04:37:20.494Z,86.43
2018-05-23T04:40:23.159Z,85.90
2018-05-23T04:43:25.245Z,86.27
2018-05-23T04:46:28.804Z,86.12
2018-05-23T04:49:32.684Z,86.15
2018-05-23T04:52:34.757Z,86.13
2018-05-23T04:55:36.927Z,86.21
2018-05-23T04:58:38.871Z,87.28
2018-05-23T05:01:40.956Z,87.25
2018-05-23T05:04:43.113Z,87.13
2018-05-23T05:07:45.155Z,86.70
2018-05-23T05:10:47.248Z,86.67
2018-05-23T05:13:49.540Z,87.18
2018-05-23T05:16:51.567Z,87.45
2018-05-23T05:19:53.525Z,87.56
2018-05-23T05:22:55.648Z,86.88
2018-05-23T05:25:58.218Z,86.87
2018-05-23T05:29:00.312Z,86.47
2018-05-23T05:32:02.530Z,85.86
2018-05-23T05:35:04.663Z,86.44
2018-05-23T05:38:06.684Z,87.57
2018-05-23T05:41:08.865Z,86.83
2018-05-23T05:44:10.939Z,85.89
2018-05-23T05:47:13.015Z,85.93
2018-05-23T05:50:15.080Z,85.84
2018-05-23T05:53:17.149Z,85.87
2018-05-23T05:56:19.243Z,85.89
2018-05-23T05:59:21.267Z,84.80
2018-05-23T06:02:25.181Z,82.77
2018-05-23T06:05:27.991Z,83.66
2018-05-23T06:08:30.127Z,83.39
2018-05-23T06:11:32.215Z,83.76
2018-05-23T06:14:34.392Z,83.26
2018-05-23T06:17:36.519Z,82.90
2018-05-23T06:20:38.437Z,82.12
2018-05-23T06:23:41.426Z,81.34
2018-05-23T06:26:43.484Z,80.48
2018-05-23T06:29:45.663Z,81.16
2018-05-23T06:32:47.739Z,80.56
2018-05-23T06:35:49.775Z,79.91
2018-05-23T06:38:51.872Z,80.14
2018-05-23T06:41:53.896Z,79.96
2018-05-23T06:44:55.999Z,79.36
2018-05-23T06:47:58.407Z,79.56
2018-05-23T06:51:00.656Z,79.99
2018-05-23T06:54:03.144Z,80.19
2018-05-23T06:57:07.247Z,80.11
2018-05-23T07:00:09.321Z,80.87
2018-05-23T07:03:11.466Z,80.98
2018-05-23T07:06:13.590Z,80.31
2018-05-23T07:09:15.826Z,79.35
2018-05-23T07:12:17.925Z,79.31
2018-05-23T07:15:21.166Z,79.55
2018-05-23T07:18:23.291Z,79.69
2018-05-23T07:21:25.476Z,79.41
2018-05-23T07:24:27.557Z,78.44
2018-05-23T07:27:29.961Z,77.76
2018-05-23T07:30:32.206Z,78.99
2018-05-23T07:33:34.302Z,76.93
2018-05-23T07:36:36.371Z,77.98
2018-05-23T07:39:38.668Z,78.06
2018-05-23T07:42:40.784Z,77.20
2018-05-23T07:45:50.614Z,77.06
2018-05-23T07:48:52.669Z,77.09
2018-05-23T07:51:55.081Z,76.55
2018-05-23T07:54:57.406Z,76.49
2018-05-23T07:57:59.474Z,76.30
2018-05-23T08:01:01.589Z,76.76
2018-05-23T08:04:03.887Z,76.45
2018-05-23T08:07:06.087Z,76.60
2018-05-23T08:10:08.280Z,76.29
2018-05-23T08:13:10.378Z,76.44
2018-05-23T08:16:12.709Z,77.52
2018-05-23T08:19:14.994Z,77.48
2018-05-23T08:22:17.061Z,78.08
2018-05-23T08:25:19.150Z,79.70
2018-05-23T08:28:21.354Z,79.02
2018-05-23T08:31:23.527Z,79.38
2018-05-23T08:34:27.679Z,80.77
2018-05-23T08:37:29.926Z,81.12
2018-05-23T08:40:31.999Z,81.62
2018-05-23T08:43:33.991Z,81.92
2018-05-23T08:46:36.078Z,82.04
2018-05-23T08:49:38.055Z,81.34
2018-05-23T08:52:45.614Z,81.91
2018-05-23T08:55:47.670Z,82.14
2018-05-23T08:58:49.732Z,81.03
2018-05-23T09:01:51.827Z,81.41
2018-05-23T09:04:55.380Z,81.79
2018-05-23T09:07:57.296Z,80.81
2018-05-23T09:10:59.371Z,81.80
2018-05-23T09:14:01.404Z,81.06
2018-05-23T09:17:07.290Z,81.75
2018-05-23T09:20:09.325Z,81.74
2018-05-23T09:23:11.417Z,80.60
2018-05-23T09:26:13.613Z,80.75
2018-05-23T09:29:15.727Z,80.93
2018-05-23T09:32:17.903Z,79.33
2018-05-23T09:35:19.884Z,79.67
2018-05-23T09:38:21.940Z,77.67
2018-05-23T09:41:24.036Z,78.54
2018-05-23T09:44:27.044Z,77.61
2018-05-23T09:47:29.056Z,77.71
2018-05-23T09:50:32.202Z,78.17
2018-05-23T09:57:01.955Z,77.75
2018-05-23T10:00:04.125Z,76.74
2018-05-23T10:03:06.300Z,76.77
2018-05-23T10:06:08.461Z,75.22
2018-05-23T10:09:10.532Z,75.91
2018-05-23T10:12:12.724Z,75.42
2018-05-23T10:15:14.884Z,75.17
2018-05-23T10:18:16.990Z,75.64
2018-05-23T10:21:19.136Z,76.26
2018-05-23T10:24:21.344Z,74.92
2018-05-23T10:27:23.429Z,74.73
2018-05-23T10:30:26.709Z,74.22
2018-05-23T10:33:28.855Z,73.93
2018-05-23T10:36:30.867Z,73.22
2018-05-23T10:39:33.161Z,72.30
2018-05-23T10:42:35.350Z,73.42
2018-05-23T10:45:37.414Z,71.12
2018-05-23T10:48:39.777Z,70.66
2018-05-23T10:51:41.821Z,70.68
2018-05-23T10:54:43.840Z,71.15
2018-05-23T10:57:46.026Z,70.47
2018-05-23T11:00:48.172Z,71.66
2018-05-23T11:03:50.303Z,71.56
2018-05-23T11:06:52.421Z,71.12
2018-05-23T11:09:54.452Z,69.39
2018-05-23T11:12:56.626Z,69.47
2018-05-23T11:15:58.788Z,69.22
2018-05-23T11:19:00.952Z,67.27
2018-05-23T11:22:03.069Z,68.05
2018-05-23T11:25:05.301Z,68.31
2018-05-23T11:28:07.429Z,69.42
2018-05-23T11:31:09.661Z,69.47
2018-05-23T11:34:11.784Z,67.98
2018-05-23T11:37:13.899Z,69.25
2018-05-23T11:40:15.947Z,69.07
2018-05-23T11:43:18.225Z,68.74
2018-05-23T11:46:20.304Z,68.48
2018-05-23T11:49:22.368Z,69.36
2018-05-23T11:52:24.625Z,69.53
2018-05-23T11:55:26.713Z,69.17
2018-05-23T11:58:29.367Z,68.16
2018-05-23T12:01:31.454Z,67.94
2018-05-23T12:04:33.533Z,68.28
2018-05-23T12:07:35.547Z,68.23
2018-05-23T12:10:37.726Z,68.16
2018-05-23T12:13:39.844Z,65.88
2018-05-23T12:16:41.899Z,65.46
2018-05-23T12:19:44.217Z,63.63
2018-05-23T12:22:46.292Z,62.78
2018-05-23T12:25:48.252Z,63.32
2018-05-23T12:28:50.391Z,63.90
2018-05-23T12:31:52.449Z,63.50
2018-05-23T12:34:56.455Z,62.73
2018-05-23T12:37:58.588Z,61.20
2018-05-23T12:41:00.702Z,59.85
2018-05-23T12:44:03.804Z,61.75
2018-05-23T12:47:06.012Z,61.07
2018-05-23T12:50:08.025Z,60.34
2018-05-23T12:53:11.108Z,60.86
2018-05-23T12:56:13.183Z,60.41
2018-05-23T12:59:15.288Z,59.43
2018-05-23T13:02:17.405Z,60.32
2018-05-23T13:05:19.499Z,59.40
2018-05-23T13:08:21.465Z,59.25
2018-05-23T13:11:23.513Z,58.72
2018-05-23T13:14:25.619Z,58.49
2018-05-23T13:17:27.960Z,58.13
2018-05-23T13:20:30.016Z,58.46
2018-05-23T13:23:32.784Z,58.37
2018-05-23T13:26:34.799Z,57.32
2018-05-23T13:29:36.969Z,58.38
2018-05-23T13:32:39.018Z,57.73
2018-05-23T13:35:41.075Z,57.84
2018-05-23T13:38:44.233Z,58.15
2018-05-23T13:41:46.357Z,57.30
2018-05-23T13:44:48.420Z,57.68
2018-05-23T13:47:50.505Z,58.33
2018-05-23T13:50:52.603Z,58.90
2018-05-23T13:53:56.807Z,57.57
2018-05-23T13:56:58.875Z,58.27
2018-05-23T14:00:01.042Z,57.08
2018-05-23T14:03:03.101Z,55.09
2018-05-23T14:06:05.174Z,55.61
2018-05-23T14:09:07.459Z,56.60
2018-05-23T14:12:09.508Z,56.20
2018-05-23T14:15:11.564Z,57.47
2018-05-23T14:18:13.643Z,56.60
2018-05-23T14:21:15.751Z,56.51
2018-05-23T14:24:17.898Z,55.28
2018-05-23T14:27:20.046Z,55.86
2018-05-23T14:30:23.134Z,55.98
2018-05-23T14:33:25.248Z,55.68
2018-05-23T14:36:27.991Z,56.33
2018-05-23T14:39:30.059Z,56.58
2018-05-23T14:42:32.315Z,55.88
2018-05-23T14:45:34.247Z,56.84
2018-05-23T14:48:36.444Z,55.82
2018-05-23T14:51:38.616Z,56.21
2018-05-23T14:54:40.623Z,55.39
2018-05-23T14:57:42.670Z,55.92
2018-05-23T15:00:44.865Z,55.83
2018-05-23T15:03:46.907Z,56.49
2018-05-23T15:06:48.891Z,55.40
2018-05-23T15:09:50.966Z,55.69
2018-05-23T15:12:53.066Z,55.17
2018-05-23T15:15:55.420Z,54.62
2018-05-23T15:18:58.003Z,54.04
2018-05-23T15:22:00.046Z,54.43
2018-05-23T15:25:02.099Z,53.74
2018-05-23T15:28:04.236Z,53.83
2018-05-23T15:31:06.258Z,54.22
2018-05-23T15:34:08.330Z,55.33
2018-05-23T15:37:10.368Z,55.01
2018-05-23T15:40:12.349Z,54.93
2018-05-23T15:43:14.423Z,54.03
2018-05-23T15:46:16.435Z,53.47
2018-05-23T15:49:18.465Z,53.31
2018-05-23T15:52:20.629Z,54.11
2018-05-23T15:55:22.686Z,53.70
2018-05-23T15:58:24.755Z,53.01
2018-05-23T16:01:27.501Z,53.02
2018-05-23T16:04:30.564Z,53.38
2018-05-23T16:07:32.685Z,53.53
2018-05-23T16:10:34.931Z,54.39
2018-05-23T16:13:36.959Z,55.88
2018-05-23T16:16:39.049Z,55.24
2018-05-23T16:19:41.120Z,55.91
2018-05-23T16:22:43.227Z,54.33
2018-05-23T16:25:45.239Z,54.67
2018-05-23T16:28:47.324Z,54.63
2018-05-23T16:31:49.387Z,54.64
2018-05-23T16:34:51.575Z,54.27
2018-05-23T16:37:53.600Z,54.91
2018-05-23T16:40:55.619Z,55.75
2018-05-23T16:43:58.439Z,58.36
2018-05-23T16:47:00.540Z,60.45
2018-05-23T16:50:04.540Z,62.15
2018-05-23T16:53:06.624Z,62.16
2018-05-23T16:56:08.702Z,62.16
2018-05-23T16:59:10.748Z,62.07
2018-05-23T17:02:12.829Z,62.56
2018-05-23T17:05:14.915Z,61.96
2018-05-23T17:08:16.947Z,61.93
2018-05-23T17:11:19.036Z,62.22
2018-05-23T17:14:21.311Z,62.18
2018-05-23T17:17:23.496Z,62.78
2018-05-23T17:20:25.670Z,63.17
2018-05-23T17:23:28.871Z,62.56
2018-05-23T17:26:31.024Z,56.63
2018-05-23T17:29:33.077Z,53.53
2018-05-23T17:32:35.430Z,52.68
2018-05-23T17:35:37.508Z,52.58
2018-05-23T17:38:39.592Z,53.09
2018-05-23T17:41:41.668Z,52.69
2018-05-23T17:44:43.852Z,52.46
2018-05-23T17:47:46.085Z,53.84
2018-05-23T17:50:48.174Z,58.05
2018-05-23T17:53:50.452Z,59.82
2018-05-23T17:56:52.600Z,61.85
2018-05-23T17:59:54.803Z,63.92
2018-05-23T18:02:56.944Z,65.21
2018-05-23T18:06:00.207Z,66.19
2018-05-23T18:09:02.276Z,66.57
2018-05-23T18:12:04.506Z,65.92
2018-05-23T18:15:06.588Z,66.17
2018-05-23T18:18:08.638Z,65.90
2018-05-23T18:21:11.012Z,66.99
2018-05-23T18:24:13.084Z,68.25
2018-05-23T18:27:15.239Z,67.83
2018-05-23T18:30:17.345Z,69.38
2018-05-23T18:33:19.487Z,68.35
2018-05-23T18:36:21.555Z,68.99
2018-05-23T18:39:23.628Z,68.23
2018-05-23T18:42:25.680Z,69.43
2018-05-23T18:45:28.874Z,68.46
2018-05-23T18:48:30.936Z,70.83
2018-05-23T18:51:33.115Z,70.04
2018-05-23T18:54:35.265Z,68.52
2018-05-23T18:57:37.173Z,69.13
2018-05-23T19:00:39.249Z,69.65
2018-05-23T19:03:42.755Z,67.67
2018-05-23T19:06:44.810Z,67.18
2018-05-23T19:09:46.903Z,67.98
2018-05-23T19:12:48.923Z,67.48
2018-05-23T19:15:51.283Z,66.99
2018-05-23T19:18:53.556Z,67.65
2018-05-23T19:21:55.680Z,67.67
2018-05-23T19:24:57.729Z,68.05
2018-05-23T19:27:59.772Z,67.75
2018-05-23T19:31:02.781Z,66.54
2018-05-23T19:34:05.638Z,65.25
2018-05-23T19:37:07.627Z,65.65
2018-05-23T19:40:09.676Z,65.49
2018-05-23T19:43:11.784Z,64.92
2018-05-23T19:46:13.888Z,65.21
2018-05-23T19:49:15.933Z,65.49
2018-05-23T19:52:18.147Z,64.74
2018-05-23T19:55:20.263Z,65.56
2018-05-23T19:58:22.313Z,65.62
2018-05-23T20:01:24.412Z,66.34
2018-05-23T20:04:32.716Z,66.19
2018-05-23T20:07:34.759Z,66.10
2018-05-23T20:10:36.863Z,66.78
2018-05-23T20:13:39.526Z,66.77
2018-05-23T20:16:41.584Z,67.04
2018-05-23T20:19:43.668Z,67.40
2018-05-23T20:22:45.724Z,69.08
2018-05-23T20:25:47.793Z,70.55
2018-05-23T20:28:49.879Z,71.31
2018-05-23T20:31:52.940Z,71.31
2018-05-23T20:34:54.999Z,71.11
2018-05-23T20:37:57.143Z,70.85
2018-05-23T20:40:59.811Z,71.51
2018-05-23T20:44:01.963Z,71.43
2018-05-23T20:47:04.046Z,71.96
2018-05-23T20:50:06.168Z,72.68
2018-05-23T20:53:08.415Z,72.27
2018-05-23T20:56:10.443Z,71.92
2018-05-23T20:59:12.544Z,72.27
2018-05-23T21:02:14.652Z,71.89
2018-05-23T21:05:17.945Z,72.18
2018-05-23T21:08:19.790Z,72.48
2018-05-23T21:11:22.005Z,72.41
2018-05-23T21:14:23.940Z,72.99
2018-05-23T21:17:25.997Z,73.69
2018-05-23T21:20:28.099Z,73.60
2018-05-23T21:23:30.885Z,74.05
2018-05-23T21:26:32.989Z,73.86
2018-05-23T21:29:35.008Z,74.52
2018-05-23T21:32:37.055Z,74.73
2018-05-23T21:35:39.189Z,74.33
2018-05-23T21:38:41.216Z,74.15
2018-05-23T21:41:43.292Z,75.19
2018-05-23T21:44:45.315Z,75.16
2018-05-23T21:47:47.412Z,75.01
2018-05-23T21:50:50.435Z,75.30
2018-05-23T21:53:52.599Z,75.50
2018-05-23T21:56:54.659Z,74.83
2018-05-23T21:59:56.714Z,75.14
2018-05-23T22:02:58.697Z,75.36
2018-05-23T22:06:01.873Z,75.26
2018-05-23T22:09:04.825Z,75.49
2018-05-23T22:12:06.920Z,76.03
2018-05-23T22:15:08.972Z,75.88
2018-05-23T22:18:11.053Z,75.96
2018-05-23T22:21:13.031Z,76.42
2018-05-23T22:24:15.070Z,76.00
2018-05-23T22:27:17.108Z,77.24
2018-05-23T22:30:19.144Z,77.93
2018-05-23T22:33:21.204Z,78.29
2018-05-23T22:36:23.269Z,78.90
2018-05-23T22:39:25.380Z,78.93
2018-05-23T22:42:27.491Z,78.69
2018-05-23T22:45:30.520Z,78.19
2018-05-23T22:48:32.555Z,78.49
2018-05-23T22:51:34.556Z,78.26
2018-05-23T22:54:36.468Z,78.11
2018-05-23T22:57:38.473Z,77.79
2018-05-23T23:00:40.461Z,78.31
2018-05-23T23:03:42.509Z,78.27
2018-05-23T23:06:44.595Z,79.03
2018-05-23T23:09:46.647Z,79.46
2018-05-23T23:12:48.716Z,79.32
2018-05-23T23:15:51.024Z,79.29
2018-05-23T23:18:53.141Z,79.05
2018-05-23T23:21:55.108Z,79.39
2018-05-23T23:24:57.075Z,78.04
2018-05-23T23:28:01.383Z,79.13
2018-05-23T23:31:03.382Z,79.08
2018-05-23T23:34:05.460Z,79.36
2018-05-23T23:37:07.448Z,79.65
2018-05-23T23:40:09.478Z,80.18
2018-05-23T23:43:11.581Z,79.91
2018-05-23T23:46:13.610Z,79.75
2018-05-23T23:49:15.590Z,79.72
2018-05-23T23:52:17.664Z,79.75
2018-05-23T23:55:19.555Z,79.65
2018-05-23T23:58:21.579Z,80.23
